Time;durP1;ratioP1;P1;durP2;ratioP2;P2;SDS_P1;SDS_P2;PMS_P1;PMS_P2;Temp;Humidity;BMP_temperature;BMP_pressure;BME280_temperature;BME280_humidity;BME280_pressure;Samples;Min_cycle;Max_cycle;Signal;HPM_P1;HPM_P2
2023/12/26 00:00:25;;;;;;;8.15;2.45;;;6.20;99.90;;;;;;5094069;28;20048;-82
2023/12/26 00:03:13;;;;;;;5.10;2.25;;;6.20;99.90;;;;;;5081644;28;20393;-77
2023/12/26 00:06:01;;;;;;;6.47;2.35;;;6.20;99.90;;;;;;5091901;28;20065;-80
2023/12/26 00:08:50;;;;;;;8.25;2.88;;;6.20;99.90;;;;;;5090871;28;20055;-79
2023/12/26 00:11:45;;;;;;;8.98;2.75;;;6.30;99.90;;;;;;5080047;28;20044;-82
2023/12/26 00:14:32;;;;;;;4.80;2.13;;;6.30;99.90;;;;;;5086476;28;20036;-80
2023/12/26 00:17:20;;;;;;;4.72;2.20;;;6.40;99.90;;;;;;5091293;28;20106;-80
2023/12/26 00:20:08;;;;;;;7.00;2.58;;;6.30;99.90;;;;;;5095316;28;20040;-80
2023/12/26 00:22:56;;;;;;;2.97;2.08;;;6.30;99.90;;;;;;5090263;28;20040;-80
2023/12/26 00:25:44;;;;;;;4.32;2.10;;;6.20;99.90;;;;;;5086973;28;20040;-81
2023/12/26 00:28:32;;;;;;;5.97;2.10;;;6.20;99.90;;;;;;5084335;28;20047;-80
2023/12/26 00:31:20;;;;;;;8.57;2.72;;;6.20;99.90;;;;;;5078818;28;20070;-80
2023/12/26 00:34:08;;;;;;;4.47;1.95;;;6.20;99.90;;;;;;5065349;28;20036;-81
2023/12/26 00:36:55;;;;;;;5.80;2.20;;;6.20;99.90;;;;;;5095213;28;20046;-79
2023/12/26 00:39:45;;;;;;;4.50;2.15;;;6.20;99.90;;;;;;5064056;28;20052;-83
2023/12/26 00:42:43;;;;;;;7.22;2.67;;;6.20;99.90;;;;;;5090916;28;20047;-78
2023/12/26 00:45:31;;;;;;;6.68;2.30;;;6.20;99.90;;;;;;5098508;28;20055;-80
2023/12/26 00:48:19;;;;;;;3.60;2.45;;;6.10;99.90;;;;;;5082070;28;20044;-81
2023/12/26 00:51:06;;;;;;;5.22;2.20;;;6.20;99.90;;;;;;5081562;28;20503;-80
2023/12/26 00:53:54;;;;;;;4.20;2.38;;;6.20;99.90;;;;;;5066188;28;20431;-79
2023/12/26 00:56:41;;;;;;;8.75;2.55;;;6.20;99.90;;;;;;5084239;28;20569;-80
2023/12/26 00:59:28;;;;;;;7.88;2.42;;;6.10;99.90;;;;;;5085537;28;20048;-80
2023/12/26 01:02:16;;;;;;;6.25;2.50;;;6.10;99.90;;;;;;5091409;28;20442;-81
2023/12/26 01:05:03;;;;;;;6.47;2.65;;;6.10;99.90;;;;;;5069422;28;20068;-79
2023/12/26 01:07:54;;;;;;;5.93;2.78;;;6.10;99.90;;;;;;5086891;28;20049;-81
2023/12/26 01:10:42;;;;;;;8.55;2.10;;;6.10;99.90;;;;;;5078968;28;20093;-83
2023/12/26 01:13:34;;;;;;;4.50;2.35;;;6.10;99.90;;;;;;5089443;28;20036;-81
2023/12/26 01:16:27;;;;;;;3.85;2.10;;;6.00;99.90;;;;;;5090696;28;20510;-81
2023/12/26 01:19:16;;;;;;;4.82;2.95;;;6.10;99.90;;;;;;5079802;28;20048;-80
2023/12/26 01:22:04;;;;;;;3.20;2.13;;;6.10;99.90;;;;;;5092927;28;20540;-82
2023/12/26 01:24:52;;;;;;;5.60;2.35;;;6.10;99.90;;;;;;5073804;28;20048;-82
2023/12/26 01:27:40;;;;;;;4.40;2.00;;;6.10;99.90;;;;;;5078219;28;20048;-77
2023/12/26 01:30:28;;;;;;;5.10;2.53;;;6.10;99.90;;;;;;5095036;28;20036;-80
2023/12/26 01:33:15;;;;;;;10.38;3.00;;;6.20;99.90;;;;;;5107115;28;20040;-80
2023/12/26 01:36:05;;;;;;;4.68;2.42;;;6.10;99.90;;;;;;5087020;28;20046;-79
2023/12/26 01:38:53;;;;;;;5.20;2.35;;;6.10;99.90;;;;;;5047051;28;20052;-81
2023/12/26 01:41:40;;;;;;;7.95;3.15;;;6.10;99.90;;;;;;5070589;28;20542;-81
2023/12/26 01:44:29;;;;;;;4.60;2.40;;;6.10;99.90;;;;;;5074028;28;20048;-81
2023/12/26 01:47:18;;;;;;;6.55;2.25;;;6.10;99.90;;;;;;5058641;28;20048;-79
2023/12/26 01:50:09;;;;;;;3.25;2.15;;;6.10;99.90;;;;;;5065066;28;20052;-79
2023/12/26 01:52:58;;;;;;;5.28;2.50;;;6.10;99.90;;;;;;5072158;28;20049;-81
2023/12/26 01:55:46;;;;;;;6.75;2.03;;;6.10;99.90;;;;;;5069776;28;20465;-80
2023/12/26 01:58:34;;;;;;;5.60;2.65;;;6.10;99.90;;;;;;5071140;28;20044;-79
2023/12/26 02:01:24;;;;;;;6.57;2.75;;;6.20;99.90;;;;;;5070020;28;20063;-80
2023/12/26 02:04:12;;;;;;;11.82;2.47;;;6.20;99.90;;;;;;5072775;28;20262;-79
2023/12/26 02:07:00;;;;;;;3.10;1.95;;;6.30;99.90;;;;;;5063331;28;20520;-78
2023/12/26 02:09:52;;;;;;;9.30;2.27;;;6.30;99.90;;;;;;5072976;28;20652;-79
2023/12/26 02:12:39;;;;;;;4.68;2.33;;;6.40;99.90;;;;;;5066551;28;20037;-80
2023/12/26 02:15:27;;;;;;;5.15;2.25;;;6.50;99.90;;;;;;5062913;28;20043;-78
2023/12/26 02:18:15;;;;;;;5.70;2.13;;;6.50;99.90;;;;;;5078256;28;20125;-80
2023/12/26 02:21:04;;;;;;;4.22;2.00;;;6.50;99.90;;;;;;5068610;28;20036;-80
2023/12/26 02:23:58;;;;;;;4.60;2.05;;;6.50;99.90;;;;;;5064912;28;20048;-82
2023/12/26 02:26:49;;;;;;;4.32;2.00;;;6.50;99.90;;;;;;5072158;28;20051;-79
2023/12/26 02:29:37;;;;;;;4.18;2.30;;;6.50;99.90;;;;;;5078768;28;20400;-80
2023/12/26 02:32:25;;;;;;;4.63;2.10;;;6.50;99.90;;;;;;5068293;28;20514;-79
2023/12/26 02:35:13;;;;;;;4.75;2.00;;;6.60;99.90;;;;;;5054347;28;20048;-81
2023/12/26 02:38:01;;;;;;;5.45;2.00;;;6.60;99.90;;;;;;5069825;28;20140;-81
2023/12/26 02:40:51;;;;;;;3.65;2.38;;;6.60;99.90;;;;;;5056667;28;20130;-80
2023/12/26 02:43:39;;;;;;;7.70;2.60;;;6.60;99.90;;;;;;5075773;28;20048;-80
2023/12/26 02:46:27;;;;;;;4.78;2.05;;;6.60;99.90;;;;;;5064427;28;20052;-81
2023/12/26 02:49:14;;;;;;;5.70;2.08;;;6.60;99.90;;;;;;5065265;28;20059;-79
2023/12/26 02:52:02;;;;;;;3.53;2.03;;;6.60;99.90;;;;;;5066972;28;21051;-80
2023/12/26 02:54:50;;;;;;;4.25;2.22;;;6.60;99.90;;;;;;5054133;28;20048;-76
2023/12/26 02:57:38;;;;;;;4.90;2.00;;;6.60;99.90;;;;;;5061312;28;20043;-79
2023/12/26 03:00:27;;;;;;;6.22;2.00;;;6.60;99.90;;;;;;5075316;28;20032;-77
2023/12/26 03:03:16;;;;;;;5.70;2.17;;;6.60;99.90;;;;;;5050631;28;20123;-80
2023/12/26 03:06:07;;;;;;;4.82;2.47;;;6.60;99.90;;;;;;5068667;28;20048;-80
2023/12/26 03:08:55;;;;;;;3.25;2.00;;;6.60;99.90;;;;;;5082141;28;20539;-79
2023/12/26 03:11:43;;;;;;;7.63;1.95;;;6.60;99.90;;;;;;5062886;28;20051;-81
2023/12/26 03:14:32;;;;;;;6.13;1.90;;;6.70;99.90;;;;;;5070773;28;20681;-80
2023/12/26 03:17:19;;;;;;;4.88;2.15;;;6.70;99.90;;;;;;5065238;28;20185;-79
2023/12/26 03:20:08;;;;;;;5.88;2.20;;;6.70;99.90;;;;;;5058519;28;20051;-80
2023/12/26 03:22:56;;;;;;;7.72;2.25;;;6.60;99.90;;;;;;5054096;28;20108;-80
2023/12/26 03:25:43;;;;;;;5.03;2.20;;;6.60;99.90;;;;;;5068539;28;20045;-80
2023/12/26 03:28:31;;;;;;;5.60;1.95;;;6.60;99.90;;;;;;5065401;28;20048;-78
2023/12/26 03:31:18;;;;;;;3.70;2.20;;;6.50;99.90;;;;;;5055337;28;20041;-80
2023/12/26 03:34:07;;;;;;;3.88;2.05;;;6.60;99.90;;;;;;5070682;28;20069;-78
2023/12/26 03:36:55;;;;;;;7.80;2.25;;;6.60;99.90;;;;;;5067576;28;20040;-80
2023/12/26 03:39:43;;;;;;;2.92;2.10;;;6.60;99.90;;;;;;5070368;28;20040;-77
2023/12/26 03:42:31;;;;;;;4.80;1.92;;;6.60;99.90;;;;;;5056206;28;20108;-78
2023/12/26 03:45:19;;;;;;;3.72;1.65;;;6.60;99.90;;;;;;5081504;28;20064;-80
2023/12/26 03:48:09;;;;;;;7.35;2.28;;;6.60;99.90;;;;;;5068691;28;20513;-81
2023/12/26 03:50:56;;;;;;;3.10;1.67;;;6.60;99.90;;;;;;5064024;28;20099;-80
2023/12/26 03:53:44;;;;;;;8.18;1.90;;;6.60;99.90;;;;;;5070830;28;20048;-80
2023/12/26 03:56:34;;;;;;;9.10;1.88;;;6.60;99.90;;;;;;5057062;28;20079;-80
2023/12/26 03:59:22;;;;;;;10.55;2.80;;;6.70;99.90;;;;;;5077055;28;20048;-81
2023/12/26 04:02:10;;;;;;;6.03;2.00;;;6.70;99.90;;;;;;5071471;28;20064;-79
2023/12/26 04:05:01;;;;;;;8.43;2.03;;;6.70;99.90;;;;;;5076911;28;20052;-80
2023/12/26 04:07:49;;;;;;;4.63;1.95;;;6.70;99.90;;;;;;5070230;28;20080;-80
2023/12/26 04:10:42;;;;;;;10.82;2.45;;;6.70;99.90;;;;;;5064168;28;20040;-79
2023/12/26 04:13:31;;;;;;;7.15;2.25;;;6.70;99.90;;;;;;5065907;28;20103;-82
2023/12/26 04:16:18;;;;;;;3.97;1.92;;;6.70;99.90;;;;;;5065110;28;20060;-80
2023/12/26 04:19:05;;;;;;;5.82;2.08;;;6.70;99.90;;;;;;5052948;28;20124;-78
2023/12/26 04:21:56;;;;;;;5.88;2.15;;;6.70;99.90;;;;;;5067660;28;20040;-80
2023/12/26 04:24:43;;;;;;;12.05;2.95;;;6.70;99.90;;;;;;5049483;28;20417;-79
2023/12/26 04:27:30;;;;;;;4.82;2.15;;;6.70;99.90;;;;;;5074752;28;20048;-78
2023/12/26 04:30:19;;;;;;;11.27;3.08;;;6.70;99.90;;;;;;5088069;28;20047;-78
2023/12/26 04:33:07;;;;;;;5.88;2.45;;;6.70;99.90;;;;;;5074481;28;20457;-78
2023/12/26 04:35:56;;;;;;;8.70;2.30;;;6.80;99.90;;;;;;5070566;28;20056;-80
2023/12/26 04:38:43;;;;;;;8.27;2.13;;;6.80;99.90;;;;;;5073438;28;20044;-79
2023/12/26 04:41:31;;;;;;;7.40;2.67;;;6.80;99.90;;;;;;5067639;28;20336;-75
2023/12/26 04:44:19;;;;;;;8.02;2.83;;;6.80;99.90;;;;;;5079125;28;20063;-78
2023/12/26 04:47:06;;;;;;;11.93;2.47;;;6.70;99.90;;;;;;5076654;28;20123;-78
2023/12/26 04:49:55;;;;;;;6.63;2.38;;;6.70;99.90;;;;;;5060929;28;20069;-80
2023/12/26 04:52:46;;;;;;;6.80;2.35;;;6.70;99.90;;;;;;5068675;28;20040;-80
2023/12/26 04:55:34;;;;;;;6.78;2.13;;;6.80;99.90;;;;;;5050762;28;20028;-79
2023/12/26 04:58:21;;;;;;;6.55;2.47;;;6.80;99.90;;;;;;5067114;28;20048;-80
2023/12/26 05:01:09;;;;;;;8.20;2.70;;;6.80;99.90;;;;;;5067994;28;20116;-79
2023/12/26 05:03:58;;;;;;;7.20;2.42;;;6.80;99.90;;;;;;5053039;28;20094;-79
2023/12/26 05:06:45;;;;;;;6.90;2.58;;;6.90;99.90;;;;;;5058373;28;20036;-79
2023/12/26 05:09:33;;;;;;;6.15;2.78;;;6.90;99.90;;;;;;5068271;28;20032;-75
2023/12/26 05:12:20;;;;;;;5.63;2.30;;;6.90;99.90;;;;;;5083232;28;20052;-80
2023/12/26 05:15:09;;;;;;;8.18;2.50;;;7.00;99.90;;;;;;5067752;28;20040;-80
2023/12/26 05:17:57;;;;;;;6.57;2.20;;;7.00;99.90;;;;;;5055737;28;20040;-80
2023/12/26 05:20:45;;;;;;;7.93;2.50;;;7.00;99.90;;;;;;5044151;28;20041;-80
2023/12/26 05:23:34;;;;;;;5.93;2.65;;;7.00;99.90;;;;;;5063652;28;20093;-80
2023/12/26 05:26:22;;;;;;;6.18;2.30;;;6.90;99.90;;;;;;5056648;28;21614;-79
2023/12/26 05:29:10;;;;;;;10.50;2.45;;;6.90;99.90;;;;;;5073166;28;20131;-79
2023/12/26 05:31:58;;;;;;;6.95;2.17;;;6.90;99.90;;;;;;5068046;28;20049;-79
2023/12/26 05:34:45;;;;;;;10.80;2.70;;;6.90;99.90;;;;;;5080223;28;20036;-76
2023/12/26 05:37:33;;;;;;;7.13;2.63;;;6.90;99.90;;;;;;5058081;28;20038;-83
2023/12/26 05:40:21;;;;;;;12.88;2.65;;;7.00;99.90;;;;;;5076590;28;20097;-83
2023/12/26 05:43:08;;;;;;;10.82;2.60;;;7.00;99.90;;;;;;5064226;28;20037;-78
2023/12/26 05:45:56;;;;;;;10.88;2.42;;;6.90;99.90;;;;;;5073220;28;21048;-76
2023/12/26 05:48:43;;;;;;;8.13;2.65;;;6.90;99.90;;;;;;5066601;28;20037;-79
2023/12/26 05:51:31;;;;;;;4.72;2.13;;;7.00;99.90;;;;;;5061682;28;20056;-77
2023/12/26 05:54:18;;;;;;;6.80;2.28;;;7.00;99.90;;;;;;5073509;28;20040;-78
2023/12/26 05:57:06;;;;;;;5.60;2.33;;;7.00;99.90;;;;;;5079779;28;20068;-80
2023/12/26 05:59:54;;;;;;;7.25;2.22;;;6.90;99.90;;;;;;5063281;28;20053;-82
2023/12/26 06:02:41;;;;;;;8.68;2.45;;;7.00;99.90;;;;;;5061584;28;20051;-80
2023/12/26 06:05:29;;;;;;;5.43;2.05;;;7.00;99.90;;;;;;5072622;28;20408;-82
2023/12/26 06:08:18;;;;;;;9.63;2.80;;;6.90;99.90;;;;;;5058947;28;20036;-82
2023/12/26 06:11:05;;;;;;;7.90;2.50;;;6.90;99.90;;;;;;5073737;28;20049;-80
2023/12/26 06:13:52;;;;;;;8.65;2.42;;;6.90;99.90;;;;;;5073901;28;20293;-79
2023/12/26 06:16:41;;;;;;;5.18;2.58;;;6.90;99.90;;;;;;5056219;28;20036;-78
2023/12/26 06:19:28;;;;;;;10.27;2.90;;;6.90;99.90;;;;;;5072284;28;20044;-79
2023/12/26 06:22:16;;;;;;;8.27;2.70;;;6.90;99.90;;;;;;5065818;28;20055;-79
2023/12/26 06:25:04;;;;;;;6.53;2.40;;;6.90;99.90;;;;;;5070993;28;20131;-78
2023/12/26 06:27:51;;;;;;;6.82;2.30;;;6.80;99.90;;;;;;5072973;28;20053;-80
2023/12/26 06:30:38;;;;;;;11.57;2.55;;;6.80;99.90;;;;;;5070043;28;20052;-79
2023/12/26 06:33:27;;;;;;;9.85;2.72;;;6.80;99.90;;;;;;5075631;28;20044;-79
2023/12/26 06:36:15;;;;;;;13.43;2.85;;;6.80;99.90;;;;;;5070606;28;20044;-80
2023/12/26 06:39:04;;;;;;;5.55;2.60;;;6.80;99.90;;;;;;5074261;28;20076;-78
2023/12/26 06:41:51;;;;;;;7.80;2.85;;;6.80;99.90;;;;;;5084439;28;20044;-81
2023/12/26 06:44:40;;;;;;;4.85;2.33;;;6.80;99.90;;;;;;5066004;28;20032;-81
2023/12/26 06:47:30;;;;;;;9.77;2.50;;;6.90;99.90;;;;;;5055685;28;20036;-81
2023/12/26 06:50:17;;;;;;;5.90;2.47;;;6.90;99.90;;;;;;5068837;28;20036;-79
2023/12/26 06:53:04;;;;;;;19.08;3.13;;;6.80;99.90;;;;;;5070750;28;20048;-79
2023/12/26 06:55:52;;;;;;;7.88;2.22;;;6.80;99.90;;;;;;5071522;28;20098;-81
2023/12/26 06:58:39;;;;;;;7.15;2.70;;;6.80;99.90;;;;;;5052192;28;20047;-81
2023/12/26 07:01:30;;;;;;;6.90;2.88;;;6.80;99.90;;;;;;5058928;28;20072;-78
2023/12/26 07:04:17;;;;;;;7.13;2.42;;;6.80;99.90;;;;;;5036931;28;20037;-80
2023/12/26 07:07:05;;;;;;;6.13;3.10;;;6.80;99.90;;;;;;5071470;28;20040;-79
2023/12/26 07:09:53;;;;;;;11.63;3.08;;;6.90;99.90;;;;;;5068317;28;20064;-81
2023/12/26 07:12:41;;;;;;;8.13;2.35;;;6.90;99.90;;;;;;5076036;28;20189;-79
2023/12/26 07:15:29;;;;;;;6.80;2.28;;;6.90;99.90;;;;;;5053621;28;20045;-79
2023/12/26 07:18:18;;;;;;;10.48;2.88;;;6.80;99.90;;;;;;5064249;28;20040;-79
2023/12/26 07:21:06;;;;;;;7.15;2.47;;;6.80;99.90;;;;;;5073629;28;20074;-78
2023/12/26 07:23:57;;;;;;;11.45;2.75;;;6.80;99.90;;;;;;5075102;28;20044;-78
2023/12/26 07:26:44;;;;;;;10.27;3.60;;;6.80;99.90;;;;;;5065496;28;20055;-82
2023/12/26 07:29:40;;;;;;;6.40;2.67;;;6.90;99.90;;;;;;5073617;28;20044;-79
2023/12/26 07:32:30;;;;;;;13.88;3.00;;;6.80;99.90;;;;;;5069028;28;20072;-81
2023/12/26 07:35:18;;;;;;;9.88;2.72;;;6.90;99.90;;;;;;5057121;28;20037;-80
2023/12/26 07:38:05;;;;;;;9.48;3.03;;;6.80;99.90;;;;;;5053144;28;20040;-81
2023/12/26 07:40:52;;;;;;;6.45;2.63;;;6.80;99.90;;;;;;5064877;28;20153;-79
2023/12/26 07:43:47;;;;;;;7.03;2.70;;;6.70;99.90;;;;;;5067354;28;20068;-80
2023/12/26 07:46:35;;;;;;;8.43;2.80;;;6.70;99.90;;;;;;5060191;28;20123;-80
2023/12/26 07:49:24;;;;;;;7.30;2.80;;;6.70;99.90;;;;;;5061833;28;20052;-79
2023/12/26 07:52:13;;;;;;;6.93;2.60;;;6.70;99.90;;;;;;5071152;28;20047;-77
2023/12/26 07:55:00;;;;;;;8.65;3.33;;;6.70;99.90;;;;;;5059573;28;20147;-78
2023/12/26 07:57:47;;;;;;;8.27;2.92;;;6.70;99.90;;;;;;5065422;28;20354;-78
2023/12/26 08:00:35;;;;;;;8.27;2.83;;;6.70;99.90;;;;;;5083605;28;20040;-79
2023/12/26 08:03:23;;;;;;;10.40;2.90;;;6.60;99.90;;;;;;5078795;28;20071;-79
2023/12/26 08:06:11;;;;;;;10.32;3.30;;;6.60;99.90;;;;;;5074392;28;20048;-78
2023/12/26 08:08:59;;;;;;;8.95;3.03;;;6.60;99.90;;;;;;5051216;28;20044;-75
2023/12/26 08:11:48;;;;;;;11.30;3.03;;;6.60;99.90;;;;;;5062068;28;20059;-80
2023/12/26 08:14:37;;;;;;;10.40;3.17;;;6.60;99.90;;;;;;5067163;28;20040;-77
2023/12/26 08:17:25;;;;;;;9.77;3.08;;;6.60;99.90;;;;;;5070435;28;20400;-80
2023/12/26 08:20:13;;;;;;;7.05;3.40;;;6.60;99.90;;;;;;5071687;28;20131;-79
2023/12/26 08:23:03;;;;;;;12.90;4.80;;;6.60;99.90;;;;;;5068867;28;20132;-79
2023/12/26 08:25:50;;;;;;;8.32;3.03;;;6.60;99.90;;;;;;5057453;28;20045;-79
2023/12/26 08:28:38;;;;;;;9.18;3.28;;;6.70;99.90;;;;;;5061315;28;20051;-79
2023/12/26 08:31:25;;;;;;;7.38;3.25;;;6.70;99.90;;;;;;5063904;28;20041;-78
2023/12/26 08:34:13;;;;;;;13.85;3.55;;;6.70;99.90;;;;;;5049928;28;20036;-78
2023/12/26 08:37:03;;;;;;;9.57;2.72;;;6.70;99.90;;;;;;5075294;28;20044;-78
2023/12/26 08:39:52;;;;;;;10.05;3.25;;;6.70;99.90;;;;;;5073446;28;20123;-78
2023/12/26 08:42:41;;;;;;;5.00;2.60;;;6.70;99.90;;;;;;5067531;28;20099;-78
2023/12/26 08:45:30;;;;;;;4.38;2.42;;;6.70;99.90;;;;;;5064367;28;20169;-78
2023/12/26 08:48:21;;;;;;;5.97;2.72;;;6.70;99.90;;;;;;5075412;28;20045;-80
2023/12/26 08:51:09;;;;;;;9.48;2.90;;;6.70;99.90;;;;;;5073321;28;20428;-80
2023/12/26 08:53:57;;;;;;;7.40;2.50;;;6.70;99.90;;;;;;5061051;28;20776;-78
2023/12/26 08:56:46;;;;;;;6.18;2.92;;;6.80;99.90;;;;;;5054736;28;20041;-79
2023/12/26 08:59:35;;;;;;;12.65;3.55;;;6.80;99.90;;;;;;5071948;28;20045;-77
2023/12/26 09:02:23;;;;;;;7.32;2.88;;;6.80;99.90;;;;;;5066347;28;20044;-81
2023/12/26 09:05:11;;;;;;;8.93;2.75;;;6.90;99.90;;;;;;5057514;28;20033;-81
2023/12/26 09:08:01;;;;;;;7.25;2.70;;;6.90;99.90;;;;;;5077777;28;20066;-79
2023/12/26 09:10:49;;;;;;;12.68;2.75;;;6.90;99.90;;;;;;5066141;28;20036;-79
2023/12/26 09:13:36;;;;;;;9.57;2.72;;;7.00;99.90;;;;;;5074627;28;20049;-76
2023/12/26 09:16:24;;;;;;;6.03;2.53;;;6.90;99.90;;;;;;5084684;28;20102;-78
2023/12/26 09:19:12;;;;;;;7.63;2.78;;;6.90;99.90;;;;;;5061938;28;20600;-76
2023/12/26 09:22:00;;;;;;;8.50;2.90;;;7.00;99.90;;;;;;5059990;28;20052;-78
2023/12/26 09:24:49;;;;;;;8.18;2.97;;;7.00;99.90;;;;;;5065525;28;20044;-79
2023/12/26 09:27:42;;;;;;;7.30;2.72;;;7.10;99.90;;;;;;5069392;28;20219;-78
2023/12/26 09:30:34;;;;;;;10.35;3.55;;;7.10;99.90;;;;;;5075927;28;20040;-78
2023/12/26 09:33:22;;;;;;;17.33;3.10;;;7.10;99.90;;;;;;5061010;28;20039;-77
2023/12/26 09:36:09;;;;;;;7.45;2.60;;;7.20;99.90;;;;;;5064312;28;20040;-77
2023/12/26 09:38:58;;;;;;;8.55;2.70;;;7.20;99.90;;;;;;5078800;28;20035;-78
2023/12/26 09:41:52;;;;;;;4.88;2.85;;;7.20;99.90;;;;;;5073245;28;20072;-78
2023/12/26 09:44:40;;;;;;;10.25;2.70;;;7.30;99.90;;;;;;5091781;28;20024;-76
2023/12/26 09:47:29;;;;;;;9.18;2.97;;;7.40;99.90;;;;;;5089471;28;20040;-77
2023/12/26 09:50:16;;;;;;;4.75;2.50;;;7.40;99.90;;;;;;5075189;28;20072;-78
2023/12/26 09:53:07;;;;;;;9.00;2.58;;;7.50;99.90;;;;;;5065001;28;20497;-80
2023/12/26 09:55:55;;;;;;;5.60;2.20;;;7.60;99.90;;;;;;5071402;28;20040;-77
2023/12/26 09:58:45;;;;;;;7.70;2.20;;;7.60;99.90;;;;;;5063260;28;20511;-77
2023/12/26 10:01:33;;;;;;;7.03;2.50;;;7.70;99.90;;;;;;5058042;28;20052;-77
2023/12/26 10:04:21;;;;;;;6.90;2.55;;;7.70;99.90;;;;;;5051161;28;20063;-78
2023/12/26 10:07:09;;;;;;;6.35;2.63;;;7.70;99.90;;;;;;5053540;28;20036;-77
2023/12/26 10:09:59;;;;;;;5.93;2.88;;;7.80;99.90;;;;;;5058890;28;20631;-78
2023/12/26 10:12:49;;;;;;;4.47;2.13;;;7.80;99.90;;;;;;5049331;28;20047;-78
2023/12/26 10:15:36;;;;;;;8.48;2.20;;;7.80;99.90;;;;;;5064452;28;20428;-79
2023/12/26 10:18:27;;;;;;;7.93;2.58;;;7.80;99.90;;;;;;5072417;28;20559;-78
2023/12/26 10:21:15;;;;;;;6.85;2.80;;;7.80;99.90;;;;;;5052906;28;20075;-78
2023/12/26 10:24:04;;;;;;;11.80;3.58;;;7.80;99.90;;;;;;5072933;28;20040;-78
2023/12/26 10:26:51;;;;;;;10.30;2.65;;;7.80;99.90;;;;;;5062201;28;20098;-78
2023/12/26 10:29:39;;;;;;;7.80;2.47;;;7.80;99.90;;;;;;5062391;28;20078;-78
2023/12/26 10:32:27;;;;;;;13.90;5.22;;;7.90;99.90;;;;;;5066265;28;20213;-78
2023/12/26 10:35:16;;;;;;;7.68;3.92;;;7.90;99.90;;;;;;5062940;28;20040;-78
2023/12/26 10:38:08;;;;;;;7.85;2.67;;;7.90;99.90;;;;;;5071406;28;20036;-78
2023/12/26 10:41:03;;;;;;;9.32;2.40;;;8.00;99.90;;;;;;5068814;28;20507;-77
2023/12/26 10:43:58;;;;;;;8.80;2.60;;;8.00;99.90;;;;;;5060243;28;20048;-78
2023/12/26 10:46:47;;;;;;;5.50;2.50;;;8.00;99.90;;;;;;5061300;28;20033;-78
2023/12/26 10:49:36;;;;;;;5.75;2.50;;;8.00;99.90;;;;;;5065717;28;20128;-78
2023/12/26 10:52:26;;;;;;;6.90;2.70;;;8.00;99.90;;;;;;5066656;28;20048;-79
2023/12/26 10:55:18;;;;;;;4.78;2.10;;;8.00;99.90;;;;;;5054004;28;20043;-75
2023/12/26 10:58:23;;;;;;;8.43;2.92;;;8.00;99.90;;;;;;5044824;28;20044;-80
2023/12/26 11:01:11;;;;;;;6.47;2.30;;;8.00;99.90;;;;;;5061967;28;20044;-77
2023/12/26 13:51:25;;;;;;;3.92;1.90;;;7.90;99.90;;;;;;5063068;28;20056;-78
2023/12/26 13:54:51;;;;;;;5.28;1.75;;;7.90;99.90;;;;;;5069831;28;20096;-76
2023/12/26 13:58:16;;;;;;;4.88;2.42;;;7.90;99.90;;;;;;5064749;28;20036;-77
2023/12/26 14:01:41;;;;;;;4.15;1.85;;;7.90;99.90;;;;;;5067480;28;20041;-81
2023/12/26 14:05:07;;;;;;;3.42;2.03;;;7.90;99.90;;;;;;5063479;28;20044;-80
2023/12/26 14:08:33;;;;;;;2.90;1.80;;;7.90;99.90;;;;;;5073195;28;20063;-78
2023/12/26 14:11:57;;;;;;;6.05;2.47;;;7.90;99.90;;;;;;5069874;28;20502;-78
2023/12/26 14:15:22;;;;;;;4.10;1.77;;;7.90;99.90;;;;;;5079468;28;20051;-81
2023/12/26 14:18:47;;;;;;;3.38;1.70;;;7.90;99.90;;;;;;5080072;28;20044;-78
2023/12/26 14:22:12;;;;;;;5.63;2.10;;;8.00;99.90;;;;;;5082985;28;20048;-79
2023/12/26 14:25:38;;;;;;;5.53;2.00;;;8.00;99.90;;;;;;5065180;28;20048;-79
2023/12/26 14:29:03;;;;;;;7.32;3.10;;;8.00;99.90;;;;;;5070541;28;20052;-80
2023/12/26 14:32:28;;;;;;;4.50;2.15;;;8.00;99.90;;;;;;5068907;28;20108;-79
2023/12/26 14:35:55;;;;;;;8.55;1.88;;;7.90;99.90;;;;;;5083065;28;20036;-78
2023/12/26 14:39:21;;;;;;;7.45;1.90;;;7.90;99.90;;;;;;5064635;28;20055;-76
2023/12/26 14:42:47;;;;;;;7.32;2.20;;;7.90;99.90;;;;;;5070055;28;20047;-79
2023/12/26 14:46:14;;;;;;;7.53;2.10;;;7.80;99.90;;;;;;5055152;28;20053;-76
2023/12/26 14:49:39;;;;;;;4.85;2.33;;;7.70;99.90;;;;;;5056579;28;20410;-77
2023/12/26 14:53:04;;;;;;;3.25;1.55;;;7.70;99.90;;;;;;5067179;28;20036;-78
2023/12/26 14:56:30;;;;;;;4.00;1.80;;;7.70;99.90;;;;;;5061333;28;20066;-79
2023/12/26 14:59:58;;;;;;;4.15;1.92;;;7.70;99.90;;;;;;5063067;28;20051;-79
2023/12/26 15:02:49;;;;;;;3.58;1.70;;;7.70;99.90;;;;;;5052835;28;20041;-77
2023/12/26 15:05:38;;;;;;;4.32;1.88;;;7.70;99.90;;;;;;5056883;28;20049;-78
2023/12/26 15:08:27;;;;;;;4.72;2.08;;;7.70;99.90;;;;;;5054737;28;20723;-81
2023/12/26 15:11:16;;;;;;;7.28;1.92;;;7.80;99.90;;;;;;5047388;28;20465;-78
2023/12/26 15:14:05;;;;;;;6.03;1.50;;;7.90;99.90;;;;;;5062767;28;20507;-80
2023/12/26 15:16:56;;;;;;;3.67;1.98;;;7.90;99.90;;;;;;5048277;28;20131;-80
2023/12/26 15:19:46;;;;;;;2.90;1.70;;;7.80;99.90;;;;;;5067101;28;20040;-80
2023/12/26 15:22:33;;;;;;;5.85;2.63;;;7.70;99.90;;;;;;5068913;28;20158;-79
2023/12/26 15:25:21;;;;;;;3.88;2.00;;;7.60;99.90;;;;;;5054670;28;20044;-81
2023/12/26 15:28:10;;;;;;;4.65;2.22;;;7.60;99.90;;;;;;5079150;28;20570;-78
2023/12/26 15:31:00;;;;;;;6.95;2.90;;;7.50;99.90;;;;;;5071110;28;20622;-81
2023/12/26 15:33:49;;;;;;;4.45;2.05;;;7.40;99.90;;;;;;5074648;28;20416;-79
2023/12/26 15:36:41;;;;;;;4.88;2.13;;;7.40;99.90;;;;;;5072084;28;20036;-80
2023/12/26 15:39:30;;;;;;;2.05;1.63;;;7.40;99.90;;;;;;5076283;28;20047;-79
2023/12/26 15:42:18;;;;;;;7.22;3.38;;;7.50;99.90;;;;;;5060264;28;20040;-76
2023/12/26 15:45:07;;;;;;;8.18;4.20;;;7.50;99.90;;;;;;5076721;28;20055;-77
2023/12/26 15:47:55;;;;;;;3.40;2.20;;;7.50;99.90;;;;;;5044932;28;20646;-78
2023/12/26 15:50:43;;;;;;;4.53;2.20;;;7.50;99.90;;;;;;5061519;28;20057;-76
2023/12/26 15:53:32;;;;;;;4.68;2.30;;;7.50;99.90;;;;;;5070644;28;20044;-80
2023/12/26 15:56:23;;;;;;;5.65;2.42;;;7.50;99.90;;;;;;5065792;28;20469;-77
2023/12/26 15:59:13;;;;;;;5.45;2.10;;;7.50;99.90;;;;;;5064893;28;20037;-76
2023/12/26 16:02:00;;;;;;;4.38;1.88;;;7.50;99.90;;;;;;5058720;28;20068;-80
2023/12/26 16:04:47;;;;;;;12.57;3.13;;;7.50;99.90;;;;;;5066959;28;20051;-78
2023/12/26 16:07:35;;;;;;;3.92;1.77;;;7.50;99.90;;;;;;5072666;28;20040;-74
2023/12/26 16:10:26;;;;;;;7.75;2.00;;;7.50;99.90;;;;;;5065537;28;20472;-77
2023/12/26 16:13:14;;;;;;;4.38;2.15;;;7.50;99.90;;;;;;5058889;28;20083;-80
2023/12/26 16:16:01;;;;;;;3.70;2.25;;;7.50;99.90;;;;;;5056873;28;20051;-77
2023/12/26 16:18:49;;;;;;;18.70;9.07;;;7.50;99.90;;;;;;5065729;28;20033;-79
2023/12/26 16:21:39;;;;;;;4.90;3.03;;;7.40;99.90;;;;;;5073373;28;20500;-80
2023/12/26 16:24:27;;;;;;;6.03;2.33;;;7.40;99.90;;;;;;5067098;28;20056;-80
2023/12/26 16:27:19;;;;;;;6.38;2.72;;;7.40;99.90;;;;;;5057590;28;20044;-81
2023/12/26 16:30:08;;;;;;;8.25;3.63;;;7.40;99.90;;;;;;5057152;28;20045;-80
2023/12/26 16:33:01;;;;;;;7.07;3.10;;;7.40;99.90;;;;;;5056969;28;20037;-80
2023/12/26 16:35:50;;;;;;;10.18;4.82;;;7.40;99.90;;;;;;5069573;28;20048;-79
2023/12/26 16:38:39;;;;;;;6.75;3.55;;;7.40;99.90;;;;;;5068473;28;20484;-80
2023/12/26 16:41:27;;;;;;;8.02;4.75;;;7.40;99.90;;;;;;5062656;28;20763;-79
2023/12/26 16:44:14;;;;;;;7.82;3.75;;;7.30;99.90;;;;;;5055501;28;20032;-81
2023/12/26 16:47:04;;;;;;;8.40;3.25;;;7.30;99.90;;;;;;5063353;28;20041;-80
2023/12/26 16:49:53;;;;;;;6.75;3.55;;;7.30;99.90;;;;;;5070625;28;20053;-76
2023/12/26 16:52:45;;;;;;;8.35;3.97;;;7.20;99.90;;;;;;5067603;28;20039;-78
2023/12/26 16:55:34;;;;;;;10.77;4.00;;;7.20;99.90;;;;;;5065074;28;20100;-79
2023/12/26 16:58:22;;;;;;;6.63;3.47;;;7.10;99.90;;;;;;5070245;28;20067;-77
2023/12/26 17:01:10;;;;;;;7.40;2.80;;;7.20;99.90;;;;;;5072112;28;20119;-79
2023/12/26 17:04:01;;;;;;;6.63;3.40;;;7.20;99.90;;;;;;5064362;28;20509;-79
2023/12/26 17:06:49;;;;;;;5.32;3.05;;;7.20;99.90;;;;;;5058454;28;20071;-80
2023/12/26 17:09:40;;;;;;;9.35;3.65;;;7.20;99.90;;;;;;5073202;28;20036;-80
2023/12/26 17:12:28;;;;;;;16.70;3.80;;;7.20;99.90;;;;;;5075988;28;20040;-80
2023/12/26 17:15:16;;;;;;;7.80;3.58;;;7.20;99.90;;;;;;5081014;28;20041;-78
2023/12/26 17:18:05;;;;;;;10.48;4.30;;;7.10;99.90;;;;;;5079517;28;20047;-79
2023/12/26 17:20:54;;;;;;;11.65;4.03;;;7.00;99.90;;;;;;5067734;28;20048;-81
2023/12/26 17:23:44;;;;;;;9.02;4.40;;;7.00;99.90;;;;;;5072299;28;20059;-78
2023/12/26 17:29:44;;;;;;;7.40;3.67;;;6.90;99.90;;;;;;5076819;28;20062;-78
2023/12/26 17:32:33;;;;;;;9.00;4.20;;;6.80;99.90;;;;;;5074737;28;20044;-78
2023/12/26 17:35:22;;;;;;;9.02;4.82;;;6.70;99.90;;;;;;5050865;28;20043;-79
2023/12/26 17:38:10;;;;;;;12.70;3.90;;;6.70;99.90;;;;;;5059724;28;20394;-78
2023/12/26 17:40:58;;;;;;;8.15;3.88;;;6.70;99.90;;;;;;5050969;28;20499;-79
2023/12/26 17:43:49;;;;;;;13.65;6.43;;;6.70;99.90;;;;;;5055441;28;20052;-81
2023/12/26 17:46:38;;;;;;;19.05;8.15;;;6.70;99.90;;;;;;5058043;28;20059;-79
2023/12/26 17:49:27;;;;;;;9.57;4.30;;;6.70;99.90;;;;;;5054003;28;20049;-80